West Yarmouth, MA (02673)

6:12 AM EDT on August 04, 2015 (GMT -0400)
APRSWXNET | | Change Station
CLOSE
Current Station
Personal Weather Station
Location: West Yarmouth, MA
Elevation: 39 ft
Nearby Weather Stations

Elev 39 ft 41.67 °N, 70.25 °W | Updated 32 minutes ago

Overcast
Overcast
76 °F
Feels Like 75 °F
N
4
Wind Variable Wind from South
Gusts 17.0 mph

Today
High -- | Low -- °F
--% Chance of Precip.
Yesterday
High -- | Low -- °F
Precip. -- in
5:38 AM 7:55 PM
Waning Gibbous, 79% visible
Pressure 29.86 in
Visibility 7.0 miles
Clouds Mostly Cloudy 800 ft
Overcast 1300 ft
Heat Index 75 °F
Dew Point 74 °F
Humidity 95%
Rainfall in
Snow Depth Not available.
UV 0 out of 12
Pollen 7.20 out of 12
Air Quality Not available.
Flu Activity Not available.
METAR KHYA 040956Z 23011KT 7SM BKN008 OVC013 24/23 A2986 RMK AO2 SLP112 T02440233

More Conditions Fewer Conditions

Pressure 29.86 in
Visibility 7.0 miles
Clouds Mostly Cloudy 800 ft
Overcast 1300 ft
Heat Index 75 °F
Dew Point 74 °F
Humidity 95%
Rainfall in
Snow Depth Not available.
UV 0 out of 12
Pollen 7.20 out of 12
Air Quality Not available.
Flu Activity Not available.
METAR KHYA 040956Z 23011KT 7SM BKN008 OVC013 24/23 A2986 RMK AO2 SLP112 T02440233

More Conditions Fewer Conditions

10-Day Weather Forecast

×

Almanac

Astronomy

Aug. 04, 2015 Rise Set
Actual Time
Civil Twilight
Nautical Twilight
Astronomical Twilight
Moon
Length of Visible Light
Length of Day
Tomorrow will be .
, % of the Moon is Illuminated

Today's Extremes

State Highs State Lows

Community

WunderPhotos

Upload Photos

1,843,883 photos uploaded!

WunderBlogs® & News

Nearby

Air Quality

  Air Quality AQ Index Pollutant
Not available.

Snow Depth

Station Depth Elevation

Earthquake Activity

City Distance Mag. Time & Date
Minimum magnitude displayed is 2.5.

Coastal Water Temperatures

Place Temperature

Stations

Nearby Weather Stations

Station Location Temp. Windchill Dew Point Humidity Wind Precip. Elev Updated Type